createdAt,value
2022-11-06T00:02:31.749Z,13.33
2022-11-06T00:07:25.302Z,13.11
2022-11-06T00:12:18.456Z,13.27
2022-11-06T00:17:12.949Z,13.24
2022-11-06T00:22:06.871Z,13.18
2022-11-06T00:27:00.028Z,12.81
2022-11-06T00:31:53.303Z,13.21
2022-11-06T00:36:47.897Z,13.20
2022-11-06T00:41:41.378Z,13.06
2022-11-06T00:46:34.554Z,13.21
2022-11-06T00:51:30.380Z,12.52
2022-11-06T00:56:25.172Z,13.18
2022-11-06T01:01:21.865Z,13.16
2022-11-06T01:06:17.459Z,12.96
2022-11-06T01:11:16.090Z,12.82
2022-11-06T01:16:13.161Z,12.32
2022-11-06T01:21:07.535Z,11.71
2022-11-06T01:26:03.063Z,12.97
2022-11-06T01:30:56.839Z,12.99
2022-11-06T01:35:53.072Z,12.98
2022-11-06T01:40:48.610Z,12.63
2022-11-06T01:45:42.665Z,12.97
2022-11-06T01:50:36.178Z,12.83
2022-11-06T01:55:33.970Z,12.47
2022-11-06T02:00:27.877Z,12.64
2022-11-06T02:05:21.317Z,12.92
2022-11-06T02:10:14.518Z,12.48
2022-11-06T02:15:14.149Z,12.85
2022-11-06T02:20:14.424Z,12.61
2022-11-06T02:25:16.761Z,12.70
2022-11-06T02:30:13.305Z,12.15
2022-11-06T02:35:17.916Z,12.64
2022-11-06T02:40:14.263Z,12.57
2022-11-06T02:45:12.306Z,12.71
2022-11-06T02:50:11.360Z,12.77
2022-11-06T02:55:10.158Z,11.94
2022-11-06T03:00:07.921Z,12.75
2022-11-06T03:05:08.283Z,12.50
2022-11-06T03:10:01.465Z,12.81
2022-11-06T03:15:00.408Z,12.59
2022-11-06T03:19:57.359Z,12.86
2022-11-06T03:25:00.476Z,12.73
2022-11-06T03:29:59.396Z,12.88
2022-11-06T03:34:56.614Z,13.10
2022-11-06T03:39:54.586Z,13.16
2022-11-06T03:44:52.422Z,12.99
2022-11-06T03:49:50.785Z,13.26
2022-11-06T03:54:50.132Z,12.97
2022-11-06T03:59:49.590Z,12.79
2022-11-06T04:04:47.959Z,13.14
2022-11-06T04:10:02.599Z,13.38
2022-11-06T04:15:00.545Z,13.40
2022-11-06T04:19:56.736Z,12.77
2022-11-06T04:25:18.550Z,13.22
2022-11-06T04:30:16.156Z,13.20
2022-11-06T04:35:18.667Z,12.66
2022-11-06T04:40:18.683Z,13.38
2022-11-06T04:45:18.720Z,13.38
2022-11-06T04:50:16.522Z,13.39
2022-11-06T04:55:10.102Z,12.77
2022-11-06T05:00:03.506Z,13.32
2022-11-06T05:04:58.114Z,13.27
2022-11-06T05:09:51.765Z,13.02
2022-11-06T05:14:45.066Z,12.89
2022-11-06T05:19:38.239Z,12.76
2022-11-06T05:24:32.820Z,12.61
2022-11-06T05:29:26.029Z,13.08
2022-11-06T05:34:19.187Z,12.77
2022-11-06T05:39:12.534Z,13.29
2022-11-06T05:44:07.281Z,13.20
2022-11-06T05:49:00.567Z,13.23
2022-11-06T05:53:53.975Z,13.38
2022-11-06T05:58:47.224Z,13.20
2022-11-06T06:03:41.955Z,13.51
2022-11-06T06:08:35.055Z,12.93
2022-11-06T06:13:28.278Z,13.64
2022-11-06T06:18:21.787Z,13.38
2022-11-06T06:23:16.545Z,13.40
2022-11-06T06:28:09.982Z,13.92
2022-11-06T06:33:07.006Z,13.56
2022-11-06T06:38:00.590Z,14.10
2022-11-06T06:42:57.116Z,14.11
2022-11-06T06:47:53.628Z,13.72
2022-11-06T06:52:47.491Z,14.62
2022-11-06T06:57:40.591Z,14.77
2022-11-06T07:02:35.103Z,14.12
2022-11-06T07:07:28.424Z,14.91
2022-11-06T07:12:21.575Z,14.98
2022-11-06T07:17:14.704Z,15.33
2022-11-06T07:22:09.199Z,15.48
2022-11-06T07:27:02.307Z,15.60
2022-11-06T07:31:55.462Z,15.76
2022-11-06T07:36:48.584Z,15.68
2022-11-06T07:41:43.128Z,16.00
2022-11-06T07:46:36.317Z,15.96
2022-11-06T07:51:29.550Z,16.21
2022-11-06T07:56:22.792Z,15.98
2022-11-06T08:01:19.167Z,16.32
2022-11-06T08:06:13.150Z,16.62
2022-11-06T08:11:07.271Z,16.38
2022-11-06T08:16:00.437Z,16.88
2022-11-06T08:20:55.235Z,17.05
2022-11-06T08:25:48.841Z,17.13
2022-11-06T08:30:41.941Z,17.07
2022-11-06T08:35:36.209Z,17.16
2022-11-06T08:40:31.562Z,17.14
2022-11-06T08:45:24.773Z,17.41
2022-11-06T08:50:17.981Z,17.48
2022-11-06T08:55:11.158Z,17.70
2022-11-06T09:00:06.729Z,18.36
2022-11-06T09:04:59.873Z,18.93
2022-11-06T09:09:53.061Z,19.46
2022-11-06T09:14:47.342Z,19.72
2022-11-06T09:19:41.912Z,19.92
2022-11-06T09:25:01.433Z,19.98
2022-11-06T09:29:49.269Z,19.98
2022-11-06T09:34:46.177Z,20.15
2022-11-06T09:39:39.560Z,20.10
2022-11-06T09:44:49.883Z,20.33
2022-11-06T09:49:53.041Z,19.90
2022-11-06T09:54:55.983Z,20.55
2022-11-06T09:59:52.815Z,20.93
2022-11-06T10:04:50.946Z,20.68
2022-11-06T10:09:44.037Z,21.17
2022-11-06T10:14:51.367Z,21.64
2022-11-06T10:19:56.369Z,21.86
2022-11-06T10:24:58.871Z,22.17
2022-11-06T10:30:04.368Z,22.64
2022-11-06T10:35:04.512Z,22.78
2022-11-06T10:39:59.647Z,22.58
2022-11-06T10:44:58.141Z,22.72
2022-11-06T10:49:53.959Z,22.62
2022-11-06T10:55:04.296Z,22.41
2022-11-06T10:59:57.595Z,22.32
2022-11-06T11:04:55.331Z,22.30
2022-11-06T11:09:52.155Z,22.58
2022-11-06T11:14:45.430Z,22.55
2022-11-06T11:19:41.540Z,22.30
2022-11-06T11:24:35.202Z,22.44
2022-11-06T11:29:32.736Z,22.54
2022-11-06T11:34:28.360Z,22.65
2022-11-06T11:39:25.793Z,22.61
2022-11-06T11:44:20.560Z,22.77
2022-11-06T11:49:27.798Z,22.86
2022-11-06T11:54:25.750Z,23.01
2022-11-06T11:59:22.090Z,23.06
2022-11-06T12:04:23.092Z,22.98
2022-11-06T12:09:16.319Z,23.08
2022-11-06T12:14:20.490Z,23.11
2022-11-06T12:19:15.086Z,23.09
2022-11-06T12:24:17.874Z,22.78
2022-11-06T12:29:17.161Z,22.94
2022-11-06T12:34:17.842Z,22.92
2022-11-06T12:39:16.594Z,23.03
2022-11-06T12:44:12.717Z,22.94
2022-11-06T12:49:30.576Z,22.70
2022-11-06T12:54:41.234Z,22.74
2022-11-06T12:59:46.106Z,22.40
2022-11-06T13:04:52.641Z,22.11
2022-11-06T13:09:56.508Z,21.96
2022-11-06T13:15:04.452Z,22.37
2022-11-06T13:20:03.553Z,22.30
2022-11-06T13:25:05.563Z,21.80
2022-11-06T13:30:08.621Z,22.23
2022-11-06T13:35:03.660Z,22.19
2022-11-06T13:40:06.807Z,22.18
2022-11-06T13:45:02.374Z,22.18
2022-11-06T13:50:04.600Z,21.82
2022-11-06T13:55:12.061Z,22.10
2022-11-06T14:00:20.094Z,22.08
2022-11-06T14:05:53.561Z,21.76
2022-11-06T14:10:56.055Z,21.76
2022-11-06T14:15:49.264Z,21.86
2022-11-06T14:20:44.502Z,21.77
2022-11-06T14:25:58.824Z,21.65
2022-11-06T14:36:15.179Z,21.38
2022-11-06T14:41:44.879Z,21.28
2022-11-06T14:46:39.413Z,20.83
2022-11-06T14:51:33.114Z,21.06
2022-11-06T14:56:28.462Z,20.99
2022-11-06T15:01:29.835Z,20.23
2022-11-06T15:06:46.115Z,20.45
2022-11-06T15:11:57.705Z,20.38
2022-11-06T15:16:53.243Z,20.63
2022-11-06T15:21:51.674Z,20.32
2022-11-06T15:26:50.157Z,20.13
2022-11-06T15:31:46.308Z,20.23
2022-11-06T15:36:47.760Z,20.13
2022-11-06T15:41:43.521Z,20.07
2022-11-06T15:46:36.829Z,19.81
2022-11-06T15:51:30.993Z,19.58
2022-11-06T15:56:30.480Z,19.76
2022-11-06T16:01:34.079Z,19.32
2022-11-06T16:06:27.971Z,19.22
2022-11-06T16:11:22.095Z,19.46
2022-11-06T16:21:35.490Z,18.62
2022-11-06T16:26:37.688Z,18.15
2022-11-06T16:31:32.473Z,18.50
2022-11-06T16:36:27.319Z,18.91
2022-11-06T16:41:40.919Z,18.83
2022-11-06T16:47:17.085Z,18.49
2022-11-06T16:52:20.593Z,18.73
2022-11-06T16:57:20.157Z,18.37
2022-11-06T17:02:25.638Z,18.39
2022-11-06T17:07:23.674Z,18.50
2022-11-06T17:12:18.497Z,18.53
2022-11-06T17:17:26.055Z,18.69
2022-11-06T17:22:19.319Z,18.64
2022-11-06T17:27:12.519Z,18.61
2022-11-06T17:32:08.399Z,18.60
2022-11-06T17:37:01.678Z,18.49
2022-11-06T17:41:54.797Z,18.35
2022-11-06T17:46:48.607Z,18.30
2022-11-06T17:51:53.604Z,18.48
2022-11-06T17:56:47.308Z,18.40
2022-11-06T18:01:42.852Z,18.44
2022-11-06T18:06:36.829Z,18.37
2022-11-06T18:11:34.566Z,18.43
2022-11-06T18:16:30.252Z,18.45
2022-11-06T18:21:24.169Z,18.35
2022-11-06T18:26:18.078Z,18.40
2022-11-06T18:31:12.834Z,18.44
2022-11-06T18:36:08.973Z,17.80
2022-11-06T18:41:09.059Z,18.32
2022-11-06T18:46:04.512Z,18.48
2022-11-06T18:50:59.166Z,18.40
2022-11-06T18:55:55.685Z,18.08
2022-11-06T19:00:49.037Z,18.32
2022-11-06T19:05:53.781Z,18.43
2022-11-06T19:10:48.463Z,18.19
2022-11-06T19:15:46.247Z,18.29
2022-11-06T19:20:41.201Z,18.06
2022-11-06T19:25:34.521Z,18.27
2022-11-06T19:30:29.081Z,18.30
2022-11-06T19:35:22.467Z,18.38
2022-11-06T19:40:15.700Z,18.28
2022-11-06T19:45:09.728Z,18.33
2022-11-06T19:50:08.437Z,18.30
2022-11-06T19:55:25.836Z,17.71
2022-11-06T20:00:17.061Z,18.22
2022-11-06T20:05:13.740Z,17.95
2022-11-06T20:10:07.491Z,17.53
2022-11-06T20:15:00.823Z,17.87
2022-11-06T20:19:54.021Z,17.71
2022-11-06T20:24:50.481Z,18.04
2022-11-06T20:29:48.593Z,17.68
2022-11-06T20:34:45.178Z,17.97
2022-11-06T20:39:38.349Z,17.83
2022-11-06T20:44:35.037Z,17.88
2022-11-06T20:49:28.601Z,17.84
2022-11-06T20:54:22.104Z,17.06
2022-11-06T20:59:16.295Z,17.07
2022-11-06T21:04:12.629Z,17.62
2022-11-06T21:09:06.267Z,17.70
2022-11-06T21:14:00.393Z,17.57
2022-11-06T21:18:54.538Z,17.46
2022-11-06T21:23:49.597Z,17.27
2022-11-06T21:28:46.366Z,16.80
2022-11-06T21:33:41.744Z,17.25
2022-11-06T21:38:35.135Z,16.94
2022-11-06T21:43:33.259Z,17.29
2022-11-06T21:48:45.329Z,17.06
2022-11-06T21:53:58.303Z,16.85
2022-11-06T21:58:54.191Z,17.21
2022-11-06T22:03:47.668Z,16.72
2022-11-06T22:08:42.854Z,17.10
2022-11-06T22:13:36.277Z,17.03
2022-11-06T22:18:31.121Z,16.97
2022-11-06T22:23:24.454Z,17.01
2022-11-06T22:28:17.640Z,16.92
2022-11-06T22:33:11.107Z,16.84
2022-11-06T22:38:08.481Z,16.99
2022-11-06T22:43:01.656Z,16.99
2022-11-06T22:47:57.342Z,16.31
2022-11-06T22:52:51.741Z,16.36
2022-11-06T22:57:46.320Z,16.79
2022-11-06T23:02:39.561Z,16.89
2022-11-06T23:07:35.796Z,16.86
2022-11-06T23:12:33.058Z,16.88
2022-11-06T23:17:28.095Z,16.85
2022-11-06T23:22:39.621Z,16.55
2022-11-06T23:27:33.183Z,16.76
2022-11-06T23:32:28.061Z,16.51
2022-11-06T23:37:22.210Z,16.60
2022-11-06T23:42:15.793Z,16.29
2022-11-06T23:47:08.995Z,16.65
2022-11-06T23:52:03.616Z,16.61
2022-11-06T23:56:56.934Z,16.59
